Time;durP1;ratioP1;P1;durP2;ratioP2;P2;SDS_P1;SDS_P2;PMS_P1;PMS_P2;Temp;Humidity;BMP_temperature;BMP_pressure;BME280_temperature;BME280_humidity;BME280_pressure;Samples;Min_cycle;Max_cycle;Signal;HPM_P1;HPM_P2
2021/12/21 00:01:07;;;;;;;20.40;17.80;;;;;;;-2.93;84.17;98405.48;106249;1314;22640;-64
2021/12/21 00:03:35;;;;;;;20.40;17.30;;;;;;;-2.91;84.17;98403.80;106268;1315;23226;-63
2021/12/21 00:06:04;;;;;;;17.80;14.60;;;;;;;-2.87;84.22;98405.33;106287;1320;22482;-63
2021/12/21 00:08:32;;;;;;;20.20;16.50;;;;;;;-2.84;84.16;98406.41;106232;1323;23244;-62
2021/12/21 00:11:15;;;;;;;21.10;16.90;;;;;;;-2.84;84.05;98409.94;106246;1319;23414;-62
2021/12/21 00:14:40;;;;;;;18.20;15.00;;;;;;;-2.86;84.00;98413.49;106275;1319;23362;-61
2021/12/21 00:17:07;;;;;;;19.00;16.40;;;;;;;-2.87;83.94;98416.81;106256;1316;22504;-62
2021/12/21 00:24:58;;;;;;;20.20;16.90;;;;;;;-2.75;83.85;98411.57;106283;1323;22462;-63
2021/12/21 00:27:26;;;;;;;21.00;17.60;;;;;;;-2.80;83.63;98416.44;106259;1323;22502;-63
2021/12/21 00:29:54;;;;;;;22.20;19.20;;;;;;;-2.80;83.71;98424.71;106251;1322;22374;-63
2021/12/21 00:32:24;;;;;;;22.20;19.40;;;;;;;-2.81;83.61;98425.67;106261;1323;23678;-63
2021/12/21 00:34:55;;;;;;;24.80;20.70;;;;;;;-2.86;83.62;98428.42;106206;1317;22501;-63
2021/12/21 00:37:27;;;;;;;22.40;19.20;;;;;;;-2.91;83.57;98428.20;106322;1318;22601;-63
2021/12/21 00:39:57;;;;;;;21.90;19.50;;;;;;;-2.94;83.54;98425.33;106258;1320;23129;-63
2021/12/21 00:42:26;;;;;;;22.30;19.60;;;;;;;-3.00;83.41;98430.70;106130;1323;22472;-63
2021/12/21 00:44:59;;;;;;;24.50;21.50;;;;;;;-3.04;83.59;98431.83;106304;1323;22502;-62
2021/12/21 00:47:34;;;;;;;27.00;21.10;;;;;;;-3.07;83.48;98433.84;106293;1323;23205;-62
2021/12/21 00:50:04;;;;;;;24.90;21.10;;;;;;;-3.10;83.47;98432.41;106292;1322;22553;-62
2021/12/21 00:52:32;;;;;;;22.10;19.80;;;;;;;-3.10;83.62;98443.00;106271;1322;22541;-62
2021/12/21 00:55:00;;;;;;;21.60;19.30;;;;;;;-3.11;83.43;98433.14;106301;1321;22305;-62
2021/12/21 00:57:29;;;;;;;24.50;20.70;;;;;;;-3.13;83.48;98433.27;106305;1322;22392;-63
2021/12/21 01:00:08;;;;;;;27.00;22.30;;;;;;;-3.14;83.63;98437.02;106315;1318;22407;-63
2021/12/21 01:02:41;;;;;;;24.70;22.10;;;;;;;-3.16;83.64;98432.68;106319;1321;22486;-62
2021/12/21 01:05:26;;;;;;;26.90;22.60;;;;;;;-3.21;83.38;98434.16;106293;1315;23105;-62
2021/12/21 01:07:57;;;;;;;25.00;20.80;;;;;;;-3.23;83.36;98435.94;106291;1323;22501;-62
2021/12/21 01:18:28;;;;;;;22.80;19.70;;;;;;;-3.28;83.54;98444.76;106302;1319;23324;-61
2021/12/21 01:26:27;;;;;;;22.70;20.20;;;;;;;-3.22;83.52;98439.17;106340;1323;22400;-61
2021/12/21 01:29:06;;;;;;;24.30;20.90;;;;;;;-3.20;83.33;98441.98;106307;1323;22507;-62
2021/12/21 01:35:15;;;;;;;25.50;22.80;;;;;;;-3.27;83.43;98445.64;106330;1323;22603;-62
2021/12/21 01:42:28;;;;;;;32.40;25.30;;;;;;;-3.17;83.73;98440.70;106315;1323;22295;-62
2021/12/21 01:50:30;;;;;;;33.00;27.70;;;;;;;-3.09;83.57;98435.63;105891;1321;566013;-62
2021/12/21 01:52:58;;;;;;;34.80;27.40;;;;;;;-3.09;83.80;98434.27;106310;1323;22590;-62
2021/12/21 01:55:26;;;;;;;29.80;23.10;;;;;;;-3.10;83.50;98434.89;106336;1323;22564;-62
2021/12/21 01:57:54;;;;;;;30.80;24.10;;;;;;;-3.15;83.38;98434.30;106343;1323;22496;-62
2021/12/21 02:00:23;;;;;;;32.20;24.80;;;;;;;-3.13;83.51;98436.30;106355;1323;22584;-61
2021/12/21 02:02:51;;;;;;;28.80;25.00;;;;;;;-3.09;83.52;98434.38;106346;1323;22409;-63
2021/12/21 02:05:20;;;;;;;31.10;25.80;;;;;;;-3.03;83.68;98431.73;106359;1323;22400;-62
2021/12/21 02:07:48;;;;;;;32.00;25.70;;;;;;;-3.04;83.59;98430.27;106319;1323;22449;-62
2021/12/21 02:10:16;;;;;;;29.50;24.10;;;;;;;-3.06;83.60;98433.36;106316;1323;23128;-62
2021/12/21 02:12:44;;;;;;;32.60;22.40;;;;;;;-3.10;83.59;98428.52;106357;1322;22425;-62
2021/12/21 02:15:13;;;;;;;32.70;25.70;;;;;;;-3.10;83.40;98422.36;106253;1323;22510;-63
2021/12/21 02:20:39;;;;;;;29.00;23.90;;;;;;;-3.09;83.49;98431.36;106365;1323;22514;-62
2021/12/21 02:23:32;;;;;;;25.20;22.10;;;;;;;-3.13;83.61;98436.45;106321;1323;23314;-63
2021/12/21 02:26:21;;;;;;;26.60;22.20;;;;;;;-3.14;83.74;98438.92;106335;1323;22294;-62
2021/12/21 02:31:38;;;;;;;22.80;19.60;;;;;;;-3.18;83.64;98442.23;106335;1323;22494;-62
2021/12/21 02:34:10;;;;;;;23.20;20.50;;;;;;;-3.16;83.59;98438.36;106259;1323;22567;-62
2021/12/21 02:36:46;;;;;;;26.60;23.30;;;;;;;-3.18;83.55;98435.10;106326;1323;22479;-62
2021/12/21 02:39:19;;;;;;;23.30;20.80;;;;;;;-3.19;83.80;98435.70;106338;1323;22984;-62
2021/12/21 02:41:47;;;;;;;25.10;21.50;;;;;;;-3.22;83.84;98439.19;106331;1323;22637;-61
2021/12/21 02:44:16;;;;;;;24.50;21.30;;;;;;;-3.27;83.71;98429.88;106350;1323;22385;-62
2021/12/21 02:46:44;;;;;;;22.10;19.80;;;;;;;-3.28;83.77;98413.48;106247;1323;23358;-62
2021/12/21 02:49:13;;;;;;;22.80;20.40;;;;;;;-3.24;83.76;98409.58;106323;1323;22590;-62
2021/12/21 02:51:43;;;;;;;23.80;20.40;;;;;;;-3.19;83.85;98401.96;106353;1323;22489;-62
2021/12/21 02:54:13;;;;;;;27.50;24.70;;;;;;;-3.17;83.70;98402.30;106320;1323;22462;-61
2021/12/21 02:56:42;;;;;;;25.10;22.60;;;;;;;-3.19;83.78;98400.55;106358;1323;23513;-63
2021/12/21 02:59:10;;;;;;;23.30;20.70;;;;;;;-3.20;83.74;98409.05;106351;1323;22505;-63
2021/12/21 03:01:39;;;;;;;21.50;19.00;;;;;;;-3.24;83.72;98420.61;106336;1323;23032;-63
2021/12/21 03:04:08;;;;;;;22.40;19.80;;;;;;;-3.27;83.62;98420.70;106348;1323;22407;-63
2021/12/21 03:11:57;;;;;;;27.80;24.30;;;;;;;-3.30;83.82;98428.61;106365;1323;22528;-63
2021/12/21 03:14:26;;;;;;;24.90;22.50;;;;;;;-3.29;83.98;98424.28;106351;1323;23182;-63
2021/12/21 03:16:54;;;;;;;22.90;20.40;;;;;;;-3.29;84.04;98424.28;106361;1323;23266;-63
2021/12/21 03:19:22;;;;;;;21.30;18.70;;;;;;;-3.28;83.89;98422.83;106334;1323;23142;-62
2021/12/21 03:21:50;;;;;;;23.20;19.40;;;;;;;-3.27;83.91;98424.80;106369;1323;22399;-63
2021/12/21 03:24:18;;;;;;;26.70;23.80;;;;;;;-3.25;83.89;98427.86;106376;1323;22415;-61
2021/12/21 03:26:47;;;;;;;26.50;23.70;;;;;;;-3.24;83.89;98428.05;106369;1323;22295;-61
2021/12/21 03:29:15;;;;;;;26.50;23.80;;;;;;;-3.21;84.08;98426.79;106375;1323;22373;-62
2021/12/21 03:31:43;;;;;;;23.60;21.20;;;;;;;-3.17;84.06;98422.45;106353;1322;22400;-61
2021/12/21 03:34:11;;;;;;;19.20;17.20;;;;;;;-3.13;84.08;98423.15;106278;1323;23201;-62
2021/12/21 03:36:40;;;;;;;24.00;21.60;;;;;;;-3.10;83.78;98431.88;106427;1322;22479;-62
2021/12/21 03:39:16;;;;;;;21.40;19.20;;;;;;;-3.09;83.83;98431.43;106414;1322;22579;-61
2021/12/21 03:41:57;;;;;;;22.70;20.30;;;;;;;-3.08;83.93;98435.26;106254;1323;22426;-62
2021/12/21 03:44:26;;;;;;;22.10;19.80;;;;;;;-3.09;83.93;98427.55;106398;1322;22578;-61
2021/12/21 03:46:55;;;;;;;21.10;18.30;;;;;;;-3.08;83.94;98428.36;106275;1323;22428;-62
2021/12/21 03:52:02;;;;;;;23.00;20.60;;;;;;;-3.01;83.79;98418.90;106391;1322;22381;-62
2021/12/21 03:54:31;;;;;;;23.10;20.70;;;;;;;-2.98;83.82;98427.87;106265;1322;22512;-62
2021/12/21 03:57:00;;;;;;;24.40;21.00;;;;;;;-3.00;83.86;98427.81;106274;1323;22489;-62
2021/12/21 03:59:29;;;;;;;23.30;20.90;;;;;;;-3.00;84.04;98429.69;106276;1322;23245;-62
2021/12/21 04:01:58;;;;;;;22.40;19.10;;;;;;;-2.99;83.95;98432.90;106275;1322;22472;-61
2021/12/21 04:04:26;;;;;;;23.90;19.90;;;;;;;-2.97;83.91;98432.02;106373;1322;23201;-62
2021/12/21 04:06:55;;;;;;;22.40;20.00;;;;;;;-2.93;83.96;98433.08;106280;1322;22571;-63
2021/12/21 04:09:23;;;;;;;25.20;22.40;;;;;;;-2.94;83.82;98433.08;106357;1322;22422;-62
2021/12/21 04:11:51;;;;;;;24.00;21.60;;;;;;;-2.97;83.99;98430.14;106275;1323;22521;-62
2021/12/21 04:14:20;;;;;;;25.20;22.70;;;;;;;-2.95;84.08;98422.93;106277;1323;22538;-63
2021/12/21 04:16:49;;;;;;;25.50;22.80;;;;;;;-2.97;83.97;98429.53;106377;1317;22306;-61
2021/12/21 04:19:18;;;;;;;24.90;19.90;;;;;;;-2.99;84.07;98429.65;106261;1323;23185;-62
2021/12/21 04:21:47;;;;;;;23.60;21.10;;;;;;;-2.95;84.03;98428.94;106288;1323;22457;-62
2021/12/21 04:24:15;;;;;;;23.30;20.70;;;;;;;-2.91;83.98;98426.48;106402;1322;22479;-62
2021/12/21 04:26:43;;;;;;;24.70;21.70;;;;;;;-2.89;84.07;98428.50;106385;1322;22390;-62
2021/12/21 04:29:11;;;;;;;22.50;20.20;;;;;;;-2.90;84.12;98428.09;106378;1321;22483;-62
2021/12/21 04:31:39;;;;;;;23.30;20.90;;;;;;;-2.90;84.24;98428.14;106302;1323;22304;-62
2021/12/21 04:34:07;;;;;;;26.10;20.00;;;;;;;-2.87;84.14;98428.42;106383;1322;22226;-62
2021/12/21 04:36:37;;;;;;;23.20;20.70;;;;;;;-2.82;84.08;98430.66;106270;1321;22395;-62
2021/12/21 04:39:16;;;;;;;23.60;21.10;;;;;;;-2.81;84.04;98435.14;106363;1322;22347;-62
2021/12/21 04:41:45;;;;;;;20.50;18.30;;;;;;;-2.83;84.03;98435.58;106395;1322;23135;-62
2021/12/21 04:44:23;;;;;;;21.80;19.30;;;;;;;-2.85;84.16;98441.50;106393;1322;22998;-61
2021/12/21 04:46:51;;;;;;;20.90;17.90;;;;;;;-2.83;84.14;98438.70;106374;1322;22999;-62
2021/12/21 04:49:19;;;;;;;21.60;19.30;;;;;;;-2.79;84.11;98440.83;106292;1323;23076;-63
2021/12/21 04:51:48;;;;;;;20.70;18.60;;;;;;;-2.79;83.92;98442.28;106403;1322;23266;-62
2021/12/21 04:54:16;;;;;;;21.20;19.10;;;;;;;-2.81;84.15;98436.92;106392;1322;23001;-62
2021/12/21 04:56:44;;;;;;;25.80;23.10;;;;;;;-2.83;84.06;98443.69;106158;1323;138988;-62
2021/12/21 04:59:12;;;;;;;29.60;23.60;;;;;;;-2.84;84.18;98439.23;106242;1324;22632;-62
2021/12/21 05:01:43;;;;;;;29.20;24.10;;;;;;;-2.81;84.06;98441.02;106258;1324;22434;-62
2021/12/21 05:04:11;;;;;;;37.40;25.40;;;;;;;-2.81;84.02;98441.26;106239;1324;22416;-62
2021/12/21 05:06:39;;;;;;;31.40;26.30;;;;;;;-2.81;84.06;98442.40;106239;1324;22608;-62
2021/12/21 05:09:14;;;;;;;33.40;26.90;;;;;;;-2.82;84.13;98438.59;106361;1323;23148;-62
2021/12/21 05:11:44;;;;;;;32.70;27.40;;;;;;;-2.81;84.17;98436.96;106326;1323;23306;-62
2021/12/21 05:14:12;;;;;;;27.40;22.60;;;;;;;-2.82;84.16;98440.77;106221;1324;22263;-62
2021/12/21 05:16:40;;;;;;;25.20;21.00;;;;;;;-2.83;84.11;98442.15;106250;1324;22463;-62
2021/12/21 05:19:08;;;;;;;24.70;21.90;;;;;;;-2.81;84.02;98447.14;106210;1324;22400;-62
2021/12/21 05:21:36;;;;;;;24.50;22.00;;;;;;;-2.84;84.10;98446.97;106263;1324;22462;-62
2021/12/21 05:24:04;;;;;;;26.60;24.00;;;;;;;-2.83;84.06;98441.70;106229;1324;23202;-62
2021/12/21 05:26:32;;;;;;;29.10;26.20;;;;;;;-2.83;84.20;98449.89;106228;1324;22462;-62
2021/12/21 05:29:00;;;;;;;26.00;22.60;;;;;;;-2.83;84.38;98447.86;106219;1324;22299;-62
2021/12/21 05:31:29;;;;;;;22.80;20.50;;;;;;;-2.81;84.30;98440.77;106274;1324;23139;-62
2021/12/21 05:33:57;;;;;;;24.70;22.20;;;;;;;-2.77;84.23;98443.91;106226;1324;22522;-62
2021/12/21 05:36:25;;;;;;;24.00;19.60;;;;;;;-2.74;84.13;98448.55;106273;1321;23245;-62
2021/12/21 05:38:59;;;;;;;27.30;24.50;;;;;;;-2.77;84.19;98449.10;106258;1323;22508;-62
2021/12/21 05:41:40;;;;;;;26.90;23.70;;;;;;;-2.82;84.26;98450.95;106232;1317;22462;-61
2021/12/21 05:44:08;;;;;;;26.70;23.30;;;;;;;-2.86;84.08;98458.05;106257;1323;22519;-62
2021/12/21 05:46:36;;;;;;;25.50;22.40;;;;;;;-2.91;84.20;98459.00;106278;1323;23285;-62
2021/12/21 05:49:04;;;;;;;32.90;23.40;;;;;;;-2.90;84.28;98462.79;106273;1323;23017;-62
2021/12/21 05:51:37;;;;;;;27.20;24.50;;;;;;;-2.90;84.34;98462.09;106294;1323;23020;-62
2021/12/21 05:54:05;;;;;;;25.90;23.30;;;;;;;-2.93;84.28;98464.23;106283;1323;22397;-62
2021/12/21 05:56:34;;;;;;;25.80;23.00;;;;;;;-2.93;84.46;98461.06;106282;1323;23340;-62
2021/12/21 05:59:02;;;;;;;22.90;20.50;;;;;;;-2.94;84.53;98457.58;106283;1323;22394;-62
2021/12/21 06:01:33;;;;;;;23.40;21.00;;;;;;;-2.92;84.42;98449.99;106259;1323;22255;-62
2021/12/21 06:04:02;;;;;;;25.50;22.90;;;;;;;-2.89;84.37;98447.43;106305;1323;22583;-62
2021/12/21 06:06:32;;;;;;;27.40;24.10;;;;;;;-2.86;84.39;98448.83;106288;1323;23163;-62
2021/12/21 06:09:05;;;;;;;27.70;24.90;;;;;;;-2.86;84.45;98448.15;106297;1323;23164;-62
2021/12/21 06:11:39;;;;;;;31.20;28.30;;;;;;;-2.88;84.54;98452.23;106302;1323;22467;-62
2021/12/21 06:14:21;;;;;;;26.20;23.70;;;;;;;-2.88;84.52;98455.47;106275;1323;23183;-62
2021/12/21 06:22:45;;;;;;;28.00;25.20;;;;;;;-2.84;84.40;98465.77;105717;1326;23373;-62
2021/12/21 06:27:50;;;;;;;29.30;26.30;;;;;;;-2.83;84.34;98474.53;106259;1323;22414;-62
2021/12/21 06:30:19;;;;;;;29.70;26.80;;;;;;;-2.85;84.48;98481.70;106267;1322;23120;-62
2021/12/21 06:32:48;;;;;;;27.00;24.30;;;;;;;-2.87;84.61;98486.04;106254;1323;22424;-63
2021/12/21 06:35:17;;;;;;;28.00;23.60;;;;;;;-2.91;84.31;98487.08;106270;1323;22501;-62
2021/12/21 06:37:45;;;;;;;26.90;24.30;;;;;;;-2.92;84.41;98490.20;106246;1326;23043;-62
2021/12/21 06:40:13;;;;;;;27.40;24.70;;;;;;;-2.93;84.49;98490.52;106279;1323;22999;-62
2021/12/21 06:42:43;;;;;;;29.50;26.60;;;;;;;-2.93;84.50;98497.17;106236;1323;22364;-62
2021/12/21 06:45:24;;;;;;;27.60;24.90;;;;;;;-2.98;84.54;98494.80;106281;1323;22314;-62
2021/12/21 06:53:28;;;;;;;25.10;22.60;;;;;;;-2.98;84.62;98502.46;106297;1323;22542;-62
2021/12/21 06:55:56;;;;;;;28.30;23.60;;;;;;;-2.99;84.73;98504.81;106251;1323;22600;-62
2021/12/21 06:58:24;;;;;;;22.40;20.10;;;;;;;-2.97;84.64;98507.34;106289;1323;23233;-62
2021/12/21 07:00:53;;;;;;;21.50;19.50;;;;;;;-2.93;84.60;98514.98;106261;1323;22425;-62
2021/12/21 07:03:21;;;;;;;23.20;20.10;;;;;;;-2.92;84.45;98508.52;106280;1323;22410;-62
2021/12/21 07:05:51;;;;;;;24.40;21.80;;;;;;;-2.92;84.53;98510.97;106227;1323;22436;-63
2021/12/21 07:08:25;;;;;;;24.30;22.10;;;;;;;-2.92;84.62;98510.48;106276;1323;22266;-63
2021/12/21 07:11:06;;;;;;;25.00;22.60;;;;;;;-2.92;84.47;98522.77;106219;1323;22568;-63
2021/12/21 07:19:09;;;;;;;28.60;25.40;;;;;;;-2.80;84.38;98535.30;106285;1323;23491;-62
2021/12/21 07:21:38;;;;;;;30.80;27.50;;;;;;;-2.81;84.48;98534.98;106236;1323;22371;-63
2021/12/21 07:24:06;;;;;;;30.70;27.40;;;;;;;-2.81;84.35;98544.37;106289;1323;22452;-63
2021/12/21 07:26:35;;;;;;;32.50;29.10;;;;;;;-2.82;84.47;98545.48;106260;1323;22369;-63
2021/12/21 07:29:03;;;;;;;29.70;26.40;;;;;;;-2.80;84.60;98546.15;106278;1323;22319;-62
2021/12/21 07:31:33;;;;;;;26.40;23.60;;;;;;;-2.75;84.61;98550.08;106048;1326;23362;-63
2021/12/21 07:34:01;;;;;;;30.50;23.60;;;;;;;-2.70;84.37;98550.12;106266;1322;22489;-63
2021/12/21 07:36:31;;;;;;;28.10;24.90;;;;;;;-2.65;84.38;98550.84;106286;1323;22565;-62
2021/12/21 07:39:00;;;;;;;27.00;24.00;;;;;;;-2.62;84.35;98550.33;106253;1323;22507;-62
2021/12/21 07:41:28;;;;;;;31.00;25.10;;;;;;;-2.62;84.10;98549.67;106214;1323;22567;-63
2021/12/21 07:43:56;;;;;;;25.50;22.70;;;;;;;-2.62;84.23;98551.23;106279;1323;22525;-62
2021/12/21 07:46:24;;;;;;;27.60;23.50;;;;;;;-2.61;84.06;98546.15;106264;1323;23137;-64
2021/12/21 07:48:53;;;;;;;20.70;17.60;;;;;;;-2.60;83.92;98548.38;106250;1324;22352;-63
2021/12/21 07:51:21;;;;;;;23.00;20.40;;;;;;;-2.62;83.90;98547.16;106270;1324;22484;-62
2021/12/21 07:53:50;;;;;;;23.10;20.00;;;;;;;-2.62;83.91;98544.92;106309;1323;22414;-61
2021/12/21 07:56:18;;;;;;;23.50;19.60;;;;;;;-2.60;83.91;98545.70;106273;1322;23270;-63
2021/12/21 07:58:47;;;;;;;24.70;21.20;;;;;;;-2.57;84.14;98547.45;106272;1320;22511;-62
2021/12/21 08:01:15;;;;;;;22.30;18.80;;;;;;;-2.57;83.91;98549.92;106244;1323;23230;-62
2021/12/21 08:03:44;;;;;;;22.00;19.70;;;;;;;-2.55;83.62;98548.71;106287;1323;22362;-63
2021/12/21 08:06:13;;;;;;;21.60;18.80;;;;;;;-2.49;83.86;98549.79;106210;1323;22445;-63
2021/12/21 08:08:44;;;;;;;25.70;23.10;;;;;;;-2.45;83.78;98554.80;106243;1323;22504;-62
2021/12/21 08:13:43;;;;;;;30.00;26.90;;;;;;;-2.44;83.78;98557.89;106209;1323;22301;-62
2021/12/21 08:16:12;;;;;;;36.10;32.20;;;;;;;-2.45;83.61;98560.88;106268;1322;22464;-62
2021/12/21 08:18:40;;;;;;;34.70;30.90;;;;;;;-2.45;83.76;98562.59;106272;1323;22368;-62
2021/12/21 08:21:09;;;;;;;33.20;29.10;;;;;;;-2.45;83.60;98561.25;106229;1326;23357;-62
2021/12/21 08:23:37;;;;;;;36.30;26.30;;;;;;;-2.44;83.65;98563.86;106293;1323;22494;-62
2021/12/21 08:26:06;;;;;;;33.20;29.60;;;;;;;-2.41;83.56;98565.73;106266;1324;22522;-62
2021/12/21 08:28:34;;;;;;;35.30;31.10;;;;;;;-2.38;83.50;98569.40;106259;1324;22462;-62
2021/12/21 08:31:02;;;;;;;35.90;32.10;;;;;;;-2.39;83.50;98573.08;106243;1324;23201;-61
2021/12/21 08:33:30;;;;;;;36.60;32.40;;;;;;;-2.35;83.57;98574.32;106260;1323;22411;-63
2021/12/21 08:35:58;;;;;;;37.90;33.90;;;;;;;-2.28;83.65;98578.84;106325;1323;22486;-64
2021/12/21 08:38:26;;;;;;;33.80;30.00;;;;;;;-2.25;83.28;98581.45;106314;1324;23195;-63
2021/12/21 08:40:57;;;;;;;30.30;27.00;;;;;;;-2.19;83.39;98576.70;106256;1323;23149;-63
2021/12/21 08:43:28;;;;;;;29.20;26.10;;;;;;;-2.13;83.32;98580.77;106283;1323;22504;-63
2021/12/21 08:45:57;;;;;;;23.80;21.20;;;;;;;-2.11;82.77;98583.73;106260;1323;22486;-62
2021/12/21 08:48:26;;;;;;;23.40;18.80;;;;;;;-2.17;82.03;98581.82;106275;1323;22509;-62
2021/12/21 08:50:55;;;;;;;19.20;17.30;;;;;;;-2.21;81.93;98585.20;106303;1323;22392;-63
2021/12/21 08:53:24;;;;;;;18.60;16.30;;;;;;;-2.28;81.76;98583.39;106279;1323;22884;-62
2021/12/21 08:55:54;;;;;;;15.60;13.60;;;;;;;-2.31;81.77;98586.02;106267;1323;22287;-62
2021/12/21 08:58:22;;;;;;;18.00;15.10;;;;;;;-2.31;81.55;98595.40;106274;1323;22369;-62
2021/12/21 09:00:51;;;;;;;16.10;14.40;;;;;;;-2.31;80.70;98597.89;106287;1323;22435;-63
2021/12/21 09:03:20;;;;;;;19.20;15.90;;;;;;;-2.36;80.96;98597.30;106288;1323;22544;-63
2021/12/21 09:05:49;;;;;;;18.90;15.80;;;;;;;-2.38;81.08;98600.26;106268;1323;22504;-63
2021/12/21 09:08:18;;;;;;;15.10;12.70;;;;;;;-2.42;81.01;98603.33;106276;1323;23264;-62
2021/12/21 09:10:46;;;;;;;16.60;14.40;;;;;;;-2.46;80.51;98602.98;106252;1323;22544;-62
2021/12/21 09:13:14;;;;;;;16.40;14.60;;;;;;;-2.50;80.36;98601.42;106270;1323;22584;-62
2021/12/21 09:15:45;;;;;;;20.50;17.40;;;;;;;-2.52;80.89;98600.66;106257;1323;23365;-62
2021/12/21 09:18:13;;;;;;;23.50;17.70;;;;;;;-2.50;81.03;98599.85;106276;1318;23057;-62
2021/12/21 09:20:41;;;;;;;17.30;12.80;;;;;;;-2.51;79.92;98602.08;106244;1323;22586;-63
2021/12/21 09:23:09;;;;;;;13.70;12.20;;;;;;;-2.55;79.30;98605.42;106271;1323;22442;-63
2021/12/21 09:25:37;;;;;;;13.70;11.40;;;;;;;-2.57;78.61;98605.09;106252;1324;22505;-63
2021/12/21 09:28:05;;;;;;;16.20;12.60;;;;;;;-2.56;77.59;98608.88;106256;1323;22446;-62
2021/12/21 09:30:33;;;;;;;15.40;12.50;;;;;;;-2.53;78.15;98604.83;106261;1323;22424;-62
2021/12/21 09:33:01;;;;;;;13.70;12.20;;;;;;;-2.49;76.72;98616.58;106262;1323;22990;-63
2021/12/21 09:35:29;;;;;;;12.10;10.00;;;;;;;-2.49;75.80;98606.46;106262;1323;22476;-62
2021/12/21 09:37:57;;;;;;;11.90;10.60;;;;;;;-2.51;76.94;98601.66;106255;1323;22486;-62
2021/12/21 09:40:28;;;;;;;10.00;8.30;;;;;;;-2.45;76.73;98601.45;106187;1323;23205;-62
2021/12/21 09:42:59;;;;;;;12.50;9.90;;;;;;;-2.37;76.87;98602.54;106280;1318;22575;-62
2021/12/21 09:45:27;;;;;;;12.40;10.20;;;;;;;-2.30;76.30;98606.05;106259;1323;23247;-62
2021/12/21 09:47:55;;;;;;;17.30;13.30;;;;;;;-2.30;76.31;98607.75;106251;1323;22400;-62
2021/12/21 09:50:25;;;;;;;13.30;11.70;;;;;;;-2.33;75.40;98610.27;106018;1321;234798;-62
2021/12/21 09:52:54;;;;;;;13.40;12.00;;;;;;;-2.35;76.18;98604.37;106224;1324;22499;-62
2021/12/21 09:55:23;;;;;;;16.10;13.30;;;;;;;-2.28;76.49;98603.58;106185;1323;22436;-62
2021/12/21 09:57:52;;;;;;;15.50;11.80;;;;;;;-2.24;75.81;98612.65;106242;1323;22232;-64
2021/12/21 10:00:28;;;;;;;15.10;12.50;;;;;;;-2.19;76.11;98605.46;106234;1323;22383;-62
2021/12/21 10:03:04;;;;;;;19.30;15.60;;;;;;;-2.11;76.26;98610.41;106211;1323;22539;-62
2021/12/21 10:05:36;;;;;;;20.30;18.10;;;;;;;-2.07;75.97;98608.38;106281;1323;22452;-62
2021/12/21 10:08:13;;;;;;;21.50;16.70;;;;;;;-2.07;76.23;98604.61;106275;1323;22609;-62
2021/12/21 10:10:46;;;;;;;16.00;14.10;;;;;;;-2.16;73.53;98608.52;106260;1323;22322;-62
2021/12/21 10:13:20;;;;;;;13.20;11.80;;;;;;;-2.27;73.27;98604.42;106255;1322;23166;-62
2021/12/21 10:15:54;;;;;;;19.30;16.50;;;;;;;-2.34;73.34;98603.64;106265;1323;23129;-62
2021/12/21 10:18:39;;;;;;;19.40;14.60;;;;;;;-2.39;74.66;98604.02;106300;1323;22471;-63
2021/12/21 10:21:13;;;;;;;;;;;;;;;-2.31;75.19;98609.02;106260;1323;22446;-61
2021/12/21 10:23:50;;;;;;;12.90;11.50;;;;;;;-2.26;73.22;98607.97;106272;1323;22445;-62
2021/12/21 10:26:24;;;;;;;15.70;13.70;;;;;;;-2.24;73.44;98606.17;106304;1323;22859;-62
2021/12/21 10:29:05;;;;;;;18.40;15.10;;;;;;;-2.23;73.11;98613.95;106218;1323;22494;-62
2021/12/21 10:31:39;;;;;;;18.20;14.70;;;;;;;-2.21;74.27;98611.99;106283;1323;22502;-63
2021/12/21 10:34:16;;;;;;;17.60;15.40;;;;;;;-2.20;72.72;98614.28;106289;1321;22455;-62
2021/12/21 10:36:50;;;;;;;17.00;13.80;;;;;;;-2.17;73.70;98612.66;106158;1323;138224;-62
2021/12/21 10:39:24;;;;;;;18.20;14.90;;;;;;;-2.19;72.06;98611.29;106249;1317;22667;-63
2021/12/21 10:41:59;;;;;;;20.40;14.10;;;;;;;-2.20;73.37;98603.31;106198;1321;22476;-63
2021/12/21 10:44:27;;;;;;;14.60;11.60;;;;;;;-2.18;73.62;98607.30;106283;1316;22470;-62
2021/12/21 10:46:56;;;;;;;13.80;12.20;;;;;;;-2.24;72.23;98600.50;106241;1317;22429;-61
2021/12/21 10:49:34;;;;;;;13.60;11.30;;;;;;;-2.33;71.89;98599.58;106232;1322;22617;-62
2021/12/21 10:52:07;;;;;;;11.00;9.70;;;;;;;-2.34;72.12;98595.77;106195;1321;22599;-61
2021/12/21 10:54:41;;;;;;;13.50;9.90;;;;;;;-2.32;71.96;98594.99;106240;1317;22608;-61
2021/12/21 10:57:18;;;;;;;12.20;10.60;;;;;;;-2.24;72.02;98595.66;106260;1317;22503;-60
2021/12/21 10:59:50;;;;;;;12.10;10.30;;;;;;;-2.18;72.46;98594.47;106247;1323;23262;-62
2021/12/21 11:02:25;;;;;;;11.00;9.50;;;;;;;-2.13;71.80;98597.80;106291;1316;22272;-64
2021/12/21 11:04:58;;;;;;;12.70;10.20;;;;;;;-2.17;71.32;98593.29;106283;1323;22594;-63
2021/12/21 11:07:43;;;;;;;12.40;9.90;;;;;;;-2.20;71.93;98590.89;106099;1323;138347;-62
2021/12/21 11:10:39;;;;;;;11.60;9.60;;;;;;;-2.14;72.62;98599.95;106191;1323;22602;-63
2021/12/21 11:13:12;;;;;;;9.40;8.20;;;;;;;-2.07;70.62;98594.45;106241;1316;22339;-63
2021/12/21 11:15:48;;;;;;;11.50;7.60;;;;;;;-2.08;70.28;98595.83;106305;1323;22455;-61
2021/12/21 11:18:17;;;;;;;9.90;8.00;;;;;;;-2.02;70.69;98591.58;106279;1323;23209;-62
2021/12/21 11:20:48;;;;;;;12.40;9.70;;;;;;;-1.95;71.47;98591.18;106250;1323;22536;-62
2021/12/21 11:23:20;;;;;;;12.40;9.60;;;;;;;-1.92;71.55;98588.21;106302;1323;23170;-62
2021/12/21 11:25:53;;;;;;;10.60;8.60;;;;;;;-1.88;70.94;98586.11;106266;1323;22302;-62
2021/12/21 11:28:27;;;;;;;8.90;7.50;;;;;;;-1.73;69.98;98583.48;106237;1324;22345;-62
2021/12/21 11:31:00;;;;;;;12.10;9.70;;;;;;;-1.54;69.10;98580.96;106290;1323;23062;-62
2021/12/21 11:33:34;;;;;;;11.00;7.70;;;;;;;-1.26;70.12;98574.91;106180;1322;22445;-62
2021/12/21 11:38:53;;;;;;;10.70;8.10;;;;;;;-0.88;69.12;98573.33;106265;1323;22527;-62
2021/12/21 11:41:21;;;;;;;10.20;7.70;;;;;;;-1.01;69.57;98573.65;106257;1323;22430;-62
2021/12/21 11:43:58;;;;;;;9.60;7.40;;;;;;;-1.14;68.03;98574.70;106171;1323;137985;-63
2021/12/21 11:46:36;;;;;;;10.70;8.20;;;;;;;-1.17;69.14;98572.91;106250;1323;22471;-62
2021/12/21 11:49:26;;;;;;;14.00;11.90;;;;;;;-1.02;66.52;98576.66;106298;1323;22396;-63
2021/12/21 11:52:15;;;;;;;12.20;10.40;;;;;;;-0.82;68.00;98573.20;106221;1325;22502;-62
2021/12/21 11:54:58;;;;;;;10.00;7.00;;;;;;;-0.56;68.89;98575.86;106190;1324;22679;-63
2021/12/21 11:57:35;;;;;;;8.70;7.50;;;;;;;-0.17;67.07;98576.82;106246;1324;22423;-63
2021/12/21 12:00:24;;;;;;;8.20;7.20;;;;;;;0.23;67.74;98573.05;106235;1323;22517;-63
2021/12/21 12:02:54;;;;;;;7.90;7.10;;;;;;;0.54;67.04;98572.52;106277;1323;22434;-63
2021/12/21 12:05:31;;;;;;;9.00;7.00;;;;;;;0.58;65.15;98578.15;106254;1320;22405;-63
2021/12/21 12:08:06;;;;;;;9.00;6.50;;;;;;;0.39;63.97;98578.14;106213;1318;22529;-63
2021/12/21 12:10:50;;;;;;;8.60;6.30;;;;;;;0.18;64.62;98572.06;106257;1318;23122;-64
2021/12/21 12:13:26;;;;;;;9.40;7.60;;;;;;;0.01;65.10;98579.98;106131;1317;137244;-65
2021/12/21 12:16:00;;;;;;;9.40;6.60;;;;;;;-0.04;64.87;98577.14;106275;1316;22423;-64
2021/12/21 12:18:40;;;;;;;7.50;6.70;;;;;;;-0.30;63.75;98578.64;106267;1321;22386;-64
2021/12/21 12:21:25;;;;;;;8.90;7.50;;;;;;;-0.61;61.80;98577.27;106280;1317;23161;-62
2021/12/21 12:24:00;;;;;;;8.50;6.60;;;;;;;-0.83;62.97;98583.40;106280;1317;22521;-62
2021/12/21 12:26:31;;;;;;;7.40;5.60;;;;;;;-1.04;61.33;98584.32;106251;1318;22470;-61
2021/12/21 12:29:20;;;;;;;7.90;6.40;;;;;;;-1.24;61.13;98584.92;106300;1318;23394;-62
2021/12/21 12:32:04;;;;;;;8.60;6.10;;;;;;;-1.46;62.83;98578.31;106212;1322;22488;-62
2021/12/21 12:34:38;;;;;;;8.60;7.70;;;;;;;-1.57;60.86;98581.70;106476;1317;22290;-63
2021/12/21 12:37:21;;;;;;;8.10;6.80;;;;;;;-1.61;63.06;98581.82;106277;1316;23388;-64
2021/12/21 12:39:53;;;;;;;12.30;11.00;;;;;;;-1.65;64.34;98586.13;106261;1323;23163;-61
2021/12/21 12:42:26;;;;;;;9.50;7.80;;;;;;;-1.61;65.35;98584.90;106178;1318;138642;-62